sensor_id;sensor_type;location;lat;lon;timestamp;P1;durP1;ratioP1;P2;durP2;ratioP2
57822;SDS011;43650;48.064;20.624;2023-02-28T00:00:54;30.80;;;10.90;;
57822;SDS011;43650;48.064;20.624;2023-02-28T00:01:55;33.00;;;11.93;;
57822;SDS011;43650;48.064;20.624;2023-02-28T00:02:55;25.17;;;8.87;;
57822;SDS011;43650;48.064;20.624;2023-02-28T00:03:56;40.77;;;15.10;;
57822;SDS011;43650;48.064;20.624;2023-02-28T00:04:56;5.87;;;2.73;;
57822;SDS011;43650;48.064;20.624;2023-02-28T00:06:02;6.82;;;3.05;;
57822;SDS011;43650;48.064;20.624;2023-02-28T00:07:03;4.85;;;2.70;;
57822;SDS011;43650;48.064;20.624;2023-02-28T00:08:04;9.87;;;4.10;;
57822;SDS011;43650;48.064;20.624;2023-02-28T00:09:04;13.25;;;6.97;;
57822;SDS011;43650;48.064;20.624;2023-02-28T00:10:06;10.37;;;4.63;;
57822;SDS011;43650;48.064;20.624;2023-02-28T00:11:08;7.82;;;4.43;;
57822;SDS011;43650;48.064;20.624;2023-02-28T00:12:10;10.82;;;4.18;;
57822;SDS011;43650;48.064;20.624;2023-02-28T00:13:11;7.90;;;4.23;;
57822;SDS011;43650;48.064;20.624;2023-02-28T00:14:11;17.52;;;7.57;;
57822;SDS011;43650;48.064;20.624;2023-02-28T00:15:12;18.03;;;6.17;;
57822;SDS011;43650;48.064;20.624;2023-02-28T00:16:14;6.37;;;3.67;;
57822;SDS011;43650;48.064;20.624;2023-02-28T00:17:16;8.38;;;4.40;;
57822;SDS011;43650;48.064;20.624;2023-02-28T00:18:21;12.13;;;4.97;;
57822;SDS011;43650;48.064;20.624;2023-02-28T00:19:21;15.50;;;7.60;;
57822;SDS011;43650;48.064;20.624;2023-02-28T00:20:22;10.77;;;4.70;;
57822;SDS011;43650;48.064;20.624;2023-02-28T00:21:22;10.38;;;4.03;;
57822;SDS011;43650;48.064;20.624;2023-02-28T00:23:24;12.27;;;5.15;;
57822;SDS011;43650;48.064;20.624;2023-02-28T00:24:25;8.60;;;4.68;;
57822;SDS011;43650;48.064;20.624;2023-02-28T00:25:26;10.97;;;4.30;;
57822;SDS011;43650;48.064;20.624;2023-02-28T00:26:26;9.20;;;3.60;;
57822;SDS011;43650;48.064;20.624;2023-02-28T00:27:26;8.93;;;3.60;;
57822;SDS011;43650;48.064;20.624;2023-02-28T00:28:27;6.37;;;3.30;;
57822;SDS011;43650;48.064;20.624;2023-02-28T00:29:27;11.50;;;4.23;;
57822;SDS011;43650;48.064;20.624;2023-02-28T00:30:28;5.07;;;3.17;;
57822;SDS011;43650;48.064;20.624;2023-02-28T00:31:28;6.63;;;3.47;;
57822;SDS011;43650;48.064;20.624;2023-02-28T00:32:28;7.67;;;3.50;;
57822;SDS011;43650;48.064;20.624;2023-02-28T00:33:29;6.90;;;2.95;;
57822;SDS011;43650;48.064;20.624;2023-02-28T00:34:30;5.70;;;2.47;;
57822;SDS011;43650;48.064;20.624;2023-02-28T00:35:30;5.87;;;3.42;;
57822;SDS011;43650;48.064;20.624;2023-02-28T00:36:31;8.60;;;3.77;;
57822;SDS011;43650;48.064;20.624;2023-02-28T00:37:31;11.40;;;3.90;;
57822;SDS011;43650;48.064;20.624;2023-02-28T00:38:32;9.43;;;3.07;;
57822;SDS011;43650;48.064;20.624;2023-02-28T00:39:33;6.43;;;2.93;;
57822;SDS011;43650;48.064;20.624;2023-02-28T00:40:34;6.55;;;3.37;;
57822;SDS011;43650;48.064;20.624;2023-02-28T00:41:35;5.27;;;3.07;;
57822;SDS011;43650;48.064;20.624;2023-02-28T00:42:35;14.53;;;3.77;;
57822;SDS011;43650;48.064;20.624;2023-02-28T00:43:38;6.47;;;3.58;;
57822;SDS011;43650;48.064;20.624;2023-02-28T00:44:39;5.25;;;3.17;;
57822;SDS011;43650;48.064;20.624;2023-02-28T00:45:39;6.87;;;3.30;;
57822;SDS011;43650;48.064;20.624;2023-02-28T00:46:40;5.63;;;3.53;;
57822;SDS011;43650;48.064;20.624;2023-02-28T00:47:40;4.57;;;2.83;;
57822;SDS011;43650;48.064;20.624;2023-02-28T00:48:40;10.73;;;3.80;;
57822;SDS011;43650;48.064;20.624;2023-02-28T00:49:41;8.13;;;3.63;;
57822;SDS011;43650;48.064;20.624;2023-02-28T00:50:41;4.07;;;2.83;;
57822;SDS011;43650;48.064;20.624;2023-02-28T00:51:42;9.67;;;3.60;;
57822;SDS011;43650;48.064;20.624;2023-02-28T00:52:42;6.73;;;3.47;;
57822;SDS011;43650;48.064;20.624;2023-02-28T00:53:43;8.38;;;3.92;;
57822;SDS011;43650;48.064;20.624;2023-02-28T00:54:44;6.83;;;3.47;;
57822;SDS011;43650;48.064;20.624;2023-02-28T00:55:44;10.30;;;3.77;;
57822;SDS011;43650;48.064;20.624;2023-02-28T00:56:44;5.97;;;2.83;;
57822;SDS011;43650;48.064;20.624;2023-02-28T00:57:45;10.05;;;4.37;;
57822;SDS011;43650;48.064;20.624;2023-02-28T00:58:46;14.87;;;6.20;;
57822;SDS011;43650;48.064;20.624;2023-02-28T00:59:46;14.70;;;7.93;;
57822;SDS011;43650;48.064;20.624;2023-02-28T01:00:47;14.60;;;4.87;;
57822;SDS011;43650;48.064;20.624;2023-02-28T01:01:48;9.77;;;3.53;;
57822;SDS011;43650;48.064;20.624;2023-02-28T01:02:49;6.13;;;3.33;;
57822;SDS011;43650;48.064;20.624;2023-02-28T01:03:49;6.07;;;3.37;;
57822;SDS011;43650;48.064;20.624;2023-02-28T01:04:49;7.80;;;3.53;;
57822;SDS011;43650;48.064;20.624;2023-02-28T01:05:50;6.50;;;3.67;;
57822;SDS011;43650;48.064;20.624;2023-02-28T01:06:51;6.12;;;3.03;;
57822;SDS011;43650;48.064;20.624;2023-02-28T01:07:51;5.33;;;2.93;;
57822;SDS011;43650;48.064;20.624;2023-02-28T01:08:51;6.50;;;3.37;;
57822;SDS011;43650;48.064;20.624;2023-02-28T01:09:52;10.77;;;4.53;;
57822;SDS011;43650;48.064;20.624;2023-02-28T01:10:52;8.10;;;4.30;;
57822;SDS011;43650;48.064;20.624;2023-02-28T01:11:53;9.52;;;4.18;;
57822;SDS011;43650;48.064;20.624;2023-02-28T01:12:53;9.07;;;3.80;;
57822;SDS011;43650;48.064;20.624;2023-02-28T01:13:54;13.43;;;3.13;;
57822;SDS011;43650;48.064;20.624;2023-02-28T01:14:54;6.40;;;3.23;;
57822;SDS011;43650;48.064;20.624;2023-02-28T01:15:55;7.63;;;3.70;;
57822;SDS011;43650;48.064;20.624;2023-02-28T01:16:56;6.07;;;2.53;;
57822;SDS011;43650;48.064;20.624;2023-02-28T01:17:56;8.43;;;3.30;;
57822;SDS011;43650;48.064;20.624;2023-02-28T01:18:57;7.80;;;2.95;;
57822;SDS011;43650;48.064;20.624;2023-02-28T01:19:58;4.40;;;2.50;;
57822;SDS011;43650;48.064;20.624;2023-02-28T01:21:02;5.13;;;3.10;;
57822;SDS011;43650;48.064;20.624;2023-02-28T01:22:04;5.10;;;3.33;;
57822;SDS011;43650;48.064;20.624;2023-02-28T01:23:05;12.50;;;3.08;;
57822;SDS011;43650;48.064;20.624;2023-02-28T01:24:06;8.80;;;3.93;;
57822;SDS011;43650;48.064;20.624;2023-02-28T01:25:07;5.22;;;3.15;;
57822;SDS011;43650;48.064;20.624;2023-02-28T01:26:09;8.68;;;3.70;;
57822;SDS011;43650;48.064;20.624;2023-02-28T01:27:11;10.05;;;3.40;;
57822;SDS011;43650;48.064;20.624;2023-02-28T01:28:11;6.87;;;2.87;;
57822;SDS011;43650;48.064;20.624;2023-02-28T01:29:11;5.97;;;3.27;;
57822;SDS011;43650;48.064;20.624;2023-02-28T01:30:12;6.80;;;3.20;;
57822;SDS011;43650;48.064;20.624;2023-02-28T01:31:13;4.25;;;2.65;;
57822;SDS011;43650;48.064;20.624;2023-02-28T01:32:13;11.20;;;3.77;;
57822;SDS011;43650;48.064;20.624;2023-02-28T01:33:14;8.10;;;4.23;;
57822;SDS011;43650;48.064;20.624;2023-02-28T01:34:15;7.65;;;3.10;;
57822;SDS011;43650;48.064;20.624;2023-02-28T01:35:15;4.53;;;2.83;;
57822;SDS011;43650;48.064;20.624;2023-02-28T01:36:17;11.53;;;3.53;;
57822;SDS011;43650;48.064;20.624;2023-02-28T01:37:19;5.22;;;3.05;;
57822;SDS011;43650;48.064;20.624;2023-02-28T01:38:19;8.00;;;3.20;;
57822;SDS011;43650;48.064;20.624;2023-02-28T01:39:20;6.03;;;3.00;;
57822;SDS011;43650;48.064;20.624;2023-02-28T01:40:20;7.27;;;2.97;;
57822;SDS011;43650;48.064;20.624;2023-02-28T01:41:26;8.48;;;3.15;;
57822;SDS011;43650;48.064;20.624;2023-02-28T01:42:29;6.60;;;3.50;;
57822;SDS011;43650;48.064;20.624;2023-02-28T01:43:31;5.53;;;2.80;;
57822;SDS011;43650;48.064;20.624;2023-02-28T01:46:08;5.93;;;3.50;;
57822;SDS011;43650;48.064;20.624;2023-02-28T01:47:09;5.55;;;3.30;;
57822;SDS011;43650;48.064;20.624;2023-02-28T01:48:10;7.55;;;2.55;;
57822;SDS011;43650;48.064;20.624;2023-02-28T01:49:14;6.90;;;3.33;;
57822;SDS011;43650;48.064;20.624;2023-02-28T01:50:18;13.88;;;4.18;;
57822;SDS011;43650;48.064;20.624;2023-02-28T01:51:21;9.63;;;3.53;;
57822;SDS011;43650;48.064;20.624;2023-02-28T01:52:27;10.68;;;4.00;;
57822;SDS011;43650;48.064;20.624;2023-02-28T01:53:38;7.97;;;3.53;;
57822;SDS011;43650;48.064;20.624;2023-02-28T01:54:42;5.68;;;3.03;;
57822;SDS011;43650;48.064;20.624;2023-02-28T01:55:42;9.97;;;3.90;;
57822;SDS011;43650;48.064;20.624;2023-02-28T01:56:47;9.20;;;3.17;;
57822;SDS011;43650;48.064;20.624;2023-02-28T01:57:51;12.10;;;3.40;;
57822;SDS011;43650;48.064;20.624;2023-02-28T01:58:53;6.62;;;3.45;;
57822;SDS011;43650;48.064;20.624;2023-02-28T01:59:56;6.80;;;3.05;;
57822;SDS011;43650;48.064;20.624;2023-02-28T02:01:00;6.18;;;3.20;;
57822;SDS011;43650;48.064;20.624;2023-02-28T02:02:02;6.25;;;2.90;;
57822;SDS011;43650;48.064;20.624;2023-02-28T02:03:05;9.50;;;3.50;;
57822;SDS011;43650;48.064;20.624;2023-02-28T02:04:07;6.82;;;3.28;;
57822;SDS011;43650;48.064;20.624;2023-02-28T02:05:09;7.30;;;3.33;;
57822;SDS011;43650;48.064;20.624;2023-02-28T02:06:11;10.30;;;3.62;;
57822;SDS011;43650;48.064;20.624;2023-02-28T02:07:12;9.10;;;4.30;;
57822;SDS011;43650;48.064;20.624;2023-02-28T02:08:15;6.78;;;3.42;;
57822;SDS011;43650;48.064;20.624;2023-02-28T02:09:18;7.07;;;3.17;;
57822;SDS011;43650;48.064;20.624;2023-02-28T02:10:19;11.70;;;3.00;;
57822;SDS011;43650;48.064;20.624;2023-02-28T02:11:22;4.78;;;2.62;;
57822;SDS011;43650;48.064;20.624;2023-02-28T02:15:13;8.90;;;3.25;;
57822;SDS011;43650;48.064;20.624;2023-02-28T02:17:22;8.10;;;3.27;;
57822;SDS011;43650;48.064;20.624;2023-02-28T02:24:20;8.63;;;3.10;;
57822;SDS011;43650;48.064;20.624;2023-02-28T02:25:27;7.20;;;3.25;;
57822;SDS011;43650;48.064;20.624;2023-02-28T02:34:28;8.77;;;3.25;;
57822;SDS011;43650;48.064;20.624;2023-02-28T02:39:13;5.97;;;2.12;;
57822;SDS011;43650;48.064;20.624;2023-02-28T02:40:20;6.57;;;2.47;;
57822;SDS011;43650;48.064;20.624;2023-02-28T02:43:16;8.77;;;3.40;;
57822;SDS011;43650;48.064;20.624;2023-02-28T02:44:23;7.75;;;2.62;;
57822;SDS011;43650;48.064;20.624;2023-02-28T02:45:37;6.15;;;3.62;;
57822;SDS011;43650;48.064;20.624;2023-02-28T02:46:42;6.80;;;2.90;;
57822;SDS011;43650;48.064;20.624;2023-02-28T02:47:44;9.63;;;3.40;;
57822;SDS011;43650;48.064;20.624;2023-02-28T02:48:45;8.07;;;3.40;;
57822;SDS011;43650;48.064;20.624;2023-02-28T02:49:50;11.45;;;3.42;;
57822;SDS011;43650;48.064;20.624;2023-02-28T02:50:54;7.70;;;3.45;;
57822;SDS011;43650;48.064;20.624;2023-02-28T02:51:56;9.32;;;3.78;;
57822;SDS011;43650;48.064;20.624;2023-02-28T02:52:59;7.28;;;3.58;;
57822;SDS011;43650;48.064;20.624;2023-02-28T02:54:11;6.78;;;2.85;;
57822;SDS011;43650;48.064;20.624;2023-02-28T02:55:17;4.50;;;2.62;;
57822;SDS011;43650;48.064;20.624;2023-02-28T02:56:19;4.30;;;2.35;;
57822;SDS011;43650;48.064;20.624;2023-02-28T02:57:24;11.80;;;3.80;;
57822;SDS011;43650;48.064;20.624;2023-02-28T02:58:43;7.43;;;2.85;;
57822;SDS011;43650;48.064;20.624;2023-02-28T02:59:44;5.85;;;2.78;;
57822;SDS011;43650;48.064;20.624;2023-02-28T03:00:48;8.93;;;2.70;;
57822;SDS011;43650;48.064;20.624;2023-02-28T03:01:53;8.20;;;3.10;;
57822;SDS011;43650;48.064;20.624;2023-02-28T03:02:56;6.25;;;3.22;;
57822;SDS011;43650;48.064;20.624;2023-02-28T03:03:58;5.75;;;2.85;;
57822;SDS011;43650;48.064;20.624;2023-02-28T03:05:04;5.28;;;3.22;;
57822;SDS011;43650;48.064;20.624;2023-02-28T03:06:08;9.25;;;3.42;;
57822;SDS011;43650;48.064;20.624;2023-02-28T03:07:10;6.50;;;3.22;;
57822;SDS011;43650;48.064;20.624;2023-02-28T03:08:10;9.60;;;3.63;;
57822;SDS011;43650;48.064;20.624;2023-02-28T03:09:11;5.12;;;3.05;;
57822;SDS011;43650;48.064;20.624;2023-02-28T03:10:27;6.77;;;3.13;;
57822;SDS011;43650;48.064;20.624;2023-02-28T03:11:49;7.03;;;3.35;;
57822;SDS011;43650;48.064;20.624;2023-02-28T03:12:53;7.07;;;2.85;;
57822;SDS011;43650;48.064;20.624;2023-02-28T03:14:26;8.10;;;2.92;;
57822;SDS011;43650;48.064;20.624;2023-02-28T03:16:17;6.80;;;3.03;;
57822;SDS011;43650;48.064;20.624;2023-02-28T03:17:22;6.68;;;2.47;;
57822;SDS011;43650;48.064;20.624;2023-02-28T03:26:14;4.70;;;2.67;;
57822;SDS011;43650;48.064;20.624;2023-02-28T03:29:41;6.68;;;3.17;;
57822;SDS011;43650;48.064;20.624;2023-02-28T03:32:36;6.30;;;2.92;;
57822;SDS011;43650;48.064;20.624;2023-02-28T03:33:24;5.55;;;2.28;;
57822;SDS011;43650;48.064;20.624;2023-02-28T03:34:38;7.80;;;2.55;;
57822;SDS011;43650;48.064;20.624;2023-02-28T03:35:49;13.25;;;3.50;;
57822;SDS011;43650;48.064;20.624;2023-02-28T03:36:55;7.72;;;2.97;;
57822;SDS011;43650;48.064;20.624;2023-02-28T03:38:01;5.20;;;3.00;;
57822;SDS011;43650;48.064;20.624;2023-02-28T03:39:27;5.72;;;2.75;;
57822;SDS011;43650;48.064;20.624;2023-02-28T03:40:32;7.50;;;3.20;;
57822;SDS011;43650;48.064;20.624;2023-02-28T03:41:37;10.55;;;4.22;;
57822;SDS011;43650;48.064;20.624;2023-02-28T03:42:41;5.97;;;3.28;;
57822;SDS011;43650;48.064;20.624;2023-02-28T03:43:46;7.43;;;3.35;;
57822;SDS011;43650;48.064;20.624;2023-02-28T03:45:00;7.18;;;3.05;;
57822;SDS011;43650;48.064;20.624;2023-02-28T03:46:09;7.12;;;3.03;;
57822;SDS011;43650;48.064;20.624;2023-02-28T03:47:12;15.15;;;5.35;;
57822;SDS011;43650;48.064;20.624;2023-02-28T03:48:18;16.75;;;5.93;;
57822;SDS011;43650;48.064;20.624;2023-02-28T03:49:23;13.98;;;5.10;;
57822;SDS011;43650;48.064;20.624;2023-02-28T03:50:32;12.70;;;5.57;;
57822;SDS011;43650;48.064;20.624;2023-02-28T03:51:36;12.52;;;5.07;;
57822;SDS011;43650;48.064;20.624;2023-02-28T03:52:39;12.40;;;5.72;;
57822;SDS011;43650;48.064;20.624;2023-02-28T03:53:52;15.55;;;5.75;;
57822;SDS011;43650;48.064;20.624;2023-02-28T03:54:55;18.10;;;7.18;;
57822;SDS011;43650;48.064;20.624;2023-02-28T03:55:59;12.52;;;5.85;;
57822;SDS011;43650;48.064;20.624;2023-02-28T03:57:06;7.78;;;3.60;;
57822;SDS011;43650;48.064;20.624;2023-02-28T03:58:20;6.35;;;3.58;;
57822;SDS011;43650;48.064;20.624;2023-02-28T04:00:34;57.40;;;21.23;;
57822;SDS011;43650;48.064;20.624;2023-02-28T04:02:38;14.20;;;5.80;;
57822;SDS011;43650;48.064;20.624;2023-02-28T04:04:39;10.23;;;3.80;;
57822;SDS011;43650;48.064;20.624;2023-02-28T04:05:54;12.80;;;4.25;;
57822;SDS011;43650;48.064;20.624;2023-02-28T04:07:03;10.73;;;5.15;;
57822;SDS011;43650;48.064;20.624;2023-02-28T04:08:05;13.10;;;6.20;;
57822;SDS011;43650;48.064;20.624;2023-02-28T04:09:07;11.50;;;6.50;;
57822;SDS011;43650;48.064;20.624;2023-02-28T04:10:09;21.23;;;12.07;;
57822;SDS011;43650;48.064;20.624;2023-02-28T04:12:38;7.75;;;4.72;;
57822;SDS011;43650;48.064;20.624;2023-02-28T04:13:38;10.43;;;5.30;;
57822;SDS011;43650;48.064;20.624;2023-02-28T04:14:39;7.83;;;3.63;;
57822;SDS011;43650;48.064;20.624;2023-02-28T04:15:39;5.77;;;3.27;;
57822;SDS011;43650;48.064;20.624;2023-02-28T04:16:40;6.90;;;3.27;;
57822;SDS011;43650;48.064;20.624;2023-02-28T04:17:41;5.18;;;2.37;;
57822;SDS011;43650;48.064;20.624;2023-02-28T04:18:42;11.63;;;3.87;;
57822;SDS011;43650;48.064;20.624;2023-02-28T04:19:45;5.78;;;3.60;;
57822;SDS011;43650;48.064;20.624;2023-02-28T04:20:46;10.53;;;4.20;;
57822;SDS011;43650;48.064;20.624;2023-02-28T04:21:48;7.70;;;3.70;;
57822;SDS011;43650;48.064;20.624;2023-02-28T04:22:49;6.32;;;3.60;;
57822;SDS011;43650;48.064;20.624;2023-02-28T04:23:50;7.70;;;3.70;;
57822;SDS011;43650;48.064;20.624;2023-02-28T04:24:50;7.10;;;3.30;;
57822;SDS011;43650;48.064;20.624;2023-02-28T04:25:54;11.20;;;3.70;;
57822;SDS011;43650;48.064;20.624;2023-02-28T04:26:56;12.50;;;4.85;;
57822;SDS011;43650;48.064;20.624;2023-02-28T04:27:57;8.73;;;4.32;;
57822;SDS011;43650;48.064;20.624;2023-02-28T04:28:58;8.20;;;3.53;;
57822;SDS011;43650;48.064;20.624;2023-02-28T04:29:59;5.00;;;3.28;;
57822;SDS011;43650;48.064;20.624;2023-02-28T04:31:02;12.63;;;3.63;;
57822;SDS011;43650;48.064;20.624;2023-02-28T04:32:04;7.93;;;3.55;;
57822;SDS011;43650;48.064;20.624;2023-02-28T04:33:04;10.63;;;3.83;;
57822;SDS011;43650;48.064;20.624;2023-02-28T04:34:05;7.03;;;3.73;;
57822;SDS011;43650;48.064;20.624;2023-02-28T04:35:06;9.32;;;4.25;;
57822;SDS011;43650;48.064;20.624;2023-02-28T04:36:07;5.60;;;3.15;;
57822;SDS011;43650;48.064;20.624;2023-02-28T04:37:08;12.60;;;4.70;;
57822;SDS011;43650;48.064;20.624;2023-02-28T04:38:09;8.67;;;4.23;;
57822;SDS011;43650;48.064;20.624;2023-02-28T04:39:09;9.27;;;4.30;;
57822;SDS011;43650;48.064;20.624;2023-02-28T04:40:10;6.50;;;3.77;;
57822;SDS011;43650;48.064;20.624;2023-02-28T04:41:11;11.38;;;4.25;;
57822;SDS011;43650;48.064;20.624;2023-02-28T04:42:12;10.32;;;4.12;;
57822;SDS011;43650;48.064;20.624;2023-02-28T04:43:13;10.18;;;4.37;;
57822;SDS011;43650;48.064;20.624;2023-02-28T04:44:13;6.67;;;3.77;;
57822;SDS011;43650;48.064;20.624;2023-02-28T04:45:14;9.50;;;3.83;;
57822;SDS011;43650;48.064;20.624;2023-02-28T04:46:15;5.77;;;3.30;;
57822;SDS011;43650;48.064;20.624;2023-02-28T04:47:15;7.57;;;3.10;;
57822;SDS011;43650;48.064;20.624;2023-02-28T04:48:16;8.98;;;3.90;;
57822;SDS011;43650;48.064;20.624;2023-02-28T04:49:16;6.67;;;3.90;;
57822;SDS011;43650;48.064;20.624;2023-02-28T04:50:17;10.40;;;3.30;;
57822;SDS011;43650;48.064;20.624;2023-02-28T04:51:18;10.40;;;3.97;;
57822;SDS011;43650;48.064;20.624;2023-02-28T04:52:19;8.85;;;4.32;;
57822;SDS011;43650;48.064;20.624;2023-02-28T04:53:20;13.47;;;4.40;;
57822;SDS011;43650;48.064;20.624;2023-02-28T04:54:20;5.73;;;3.40;;
57822;SDS011;43650;48.064;20.624;2023-02-28T04:55:21;7.90;;;3.30;;
57822;SDS011;43650;48.064;20.624;2023-02-28T04:56:21;7.07;;;3.90;;
57822;SDS011;43650;48.064;20.624;2023-02-28T04:57:22;11.63;;;4.90;;
57822;SDS011;43650;48.064;20.624;2023-02-28T04:58:22;11.33;;;5.70;;
57822;SDS011;43650;48.064;20.624;2023-02-28T04:59:23;9.65;;;4.60;;
57822;SDS011;43650;48.064;20.624;2023-02-28T05:00:24;5.57;;;3.40;;
57822;SDS011;43650;48.064;20.624;2023-02-28T05:01:32;6.40;;;3.08;;
57822;SDS011;43650;48.064;20.624;2023-02-28T05:02:34;7.20;;;3.65;;
57822;SDS011;43650;48.064;20.624;2023-02-28T05:03:35;6.95;;;3.12;;
57822;SDS011;43650;48.064;20.624;2023-02-28T05:04:35;5.63;;;3.10;;
57822;SDS011;43650;48.064;20.624;2023-02-28T05:05:36;9.32;;;2.75;;
57822;SDS011;43650;48.064;20.624;2023-02-28T05:06:36;9.30;;;2.93;;
57822;SDS011;43650;48.064;20.624;2023-02-28T05:07:37;5.60;;;3.27;;
57822;SDS011;43650;48.064;20.624;2023-02-28T05:08:38;6.65;;;3.30;;
57822;SDS011;43650;48.064;20.624;2023-02-28T05:09:38;5.87;;;3.25;;
57822;SDS011;43650;48.064;20.624;2023-02-28T05:10:39;6.80;;;3.43;;
57822;SDS011;43650;48.064;20.624;2023-02-28T05:11:40;7.45;;;3.30;;
57822;SDS011;43650;48.064;20.624;2023-02-28T05:12:40;7.90;;;3.00;;
57822;SDS011;43650;48.064;20.624;2023-02-28T05:13:41;8.07;;;3.90;;
57822;SDS011;43650;48.064;20.624;2023-02-28T05:14:41;6.07;;;3.07;;
57822;SDS011;43650;48.064;20.624;2023-02-28T05:15:42;10.10;;;3.50;;
57822;SDS011;43650;48.064;20.624;2023-02-28T05:16:42;6.63;;;3.13;;
57822;SDS011;43650;48.064;20.624;2023-02-28T05:17:43;9.10;;;4.00;;
57822;SDS011;43650;48.064;20.624;2023-02-28T05:18:43;8.77;;;3.83;;
57822;SDS011;43650;48.064;20.624;2023-02-28T05:19:44;7.10;;;4.03;;
57822;SDS011;43650;48.064;20.624;2023-02-28T05:20:44;5.60;;;3.20;;
57822;SDS011;43650;48.064;20.624;2023-02-28T05:21:52;7.57;;;3.27;;
57822;SDS011;43650;48.064;20.624;2023-02-28T05:22:53;7.55;;;3.80;;
57822;SDS011;43650;48.064;20.624;2023-02-28T05:23:54;6.93;;;2.87;;
57822;SDS011;43650;48.064;20.624;2023-02-28T05:24:56;5.97;;;3.45;;
57822;SDS011;43650;48.064;20.624;2023-02-28T05:25:57;7.73;;;3.73;;
57822;SDS011;43650;48.064;20.624;2023-02-28T05:26:57;9.07;;;3.77;;
57822;SDS011;43650;48.064;20.624;2023-02-28T05:27:58;8.80;;;3.83;;
57822;SDS011;43650;48.064;20.624;2023-02-28T05:28:59;8.07;;;3.17;;
57822;SDS011;43650;48.064;20.624;2023-02-28T05:29:59;122.30;;;11.63;;
57822;SDS011;43650;48.064;20.624;2023-02-28T05:31:02;18.15;;;6.03;;
57822;SDS011;43650;48.064;20.624;2023-02-28T05:32:03;8.43;;;3.57;;
57822;SDS011;43650;48.064;20.624;2023-02-28T05:33:04;8.63;;;3.87;;
57822;SDS011;43650;48.064;20.624;2023-02-28T05:34:04;8.57;;;4.00;;
57822;SDS011;43650;48.064;20.624;2023-02-28T05:35:04;9.00;;;4.47;;
57822;SDS011;43650;48.064;20.624;2023-02-28T05:36:06;9.00;;;3.58;;
57822;SDS011;43650;48.064;20.624;2023-02-28T05:37:13;11.70;;;3.92;;
57822;SDS011;43650;48.064;20.624;2023-02-28T05:38:14;9.13;;;4.20;;
57822;SDS011;43650;48.064;20.624;2023-02-28T05:39:15;11.17;;;4.00;;
57822;SDS011;43650;48.064;20.624;2023-02-28T05:40:16;9.47;;;3.57;;
57822;SDS011;43650;48.064;20.624;2023-02-28T05:41:18;11.15;;;4.25;;
57822;SDS011;43650;48.064;20.624;2023-02-28T05:42:19;11.12;;;3.42;;
57822;SDS011;43650;48.064;20.624;2023-02-28T05:43:19;10.87;;;5.07;;
57822;SDS011;43650;48.064;20.624;2023-02-28T05:44:20;14.77;;;5.33;;
57822;SDS011;43650;48.064;20.624;2023-02-28T05:45:20;87.67;;;23.00;;
57822;SDS011;43650;48.064;20.624;2023-02-28T05:46:21;13.10;;;4.93;;
57822;SDS011;43650;48.064;20.624;2023-02-28T05:47:21;24.70;;;7.57;;
57822;SDS011;43650;48.064;20.624;2023-02-28T05:48:21;10.37;;;4.57;;
57822;SDS011;43650;48.064;20.624;2023-02-28T05:49:22;7.20;;;4.03;;
57822;SDS011;43650;48.064;20.624;2023-02-28T05:50:22;9.93;;;4.30;;
57822;SDS011;43650;48.064;20.624;2023-02-28T05:51:23;10.40;;;5.07;;
57822;SDS011;43650;48.064;20.624;2023-02-28T05:52:23;26.77;;;11.37;;
57822;SDS011;43650;48.064;20.624;2023-02-28T05:53:24;57.17;;;21.37;;
57822;SDS011;43650;48.064;20.624;2023-02-28T05:54:24;54.87;;;19.03;;
57822;SDS011;43650;48.064;20.624;2023-02-28T05:55:25;49.40;;;18.37;;
57822;SDS011;43650;48.064;20.624;2023-02-28T05:56:25;52.33;;;22.33;;
57822;SDS011;43650;48.064;20.624;2023-02-28T05:57:26;40.03;;;15.83;;
57822;SDS011;43650;48.064;20.624;2023-02-28T05:58:26;29.57;;;13.30;;
57822;SDS011;43650;48.064;20.624;2023-02-28T05:59:30;9.95;;;6.03;;
57822;SDS011;43650;48.064;20.624;2023-02-28T06:00:30;15.17;;;6.73;;
57822;SDS011;43650;48.064;20.624;2023-02-28T06:01:38;15.00;;;7.30;;
57822;SDS011;43650;48.064;20.624;2023-02-28T06:02:40;15.23;;;7.10;;
57822;SDS011;43650;48.064;20.624;2023-02-28T06:03:40;15.80;;;7.10;;
57822;SDS011;43650;48.064;20.624;2023-02-28T06:04:41;16.53;;;7.37;;
57822;SDS011;43650;48.064;20.624;2023-02-28T06:05:42;12.95;;;5.70;;
57822;SDS011;43650;48.064;20.624;2023-02-28T06:06:42;14.10;;;5.97;;
57822;SDS011;43650;48.064;20.624;2023-02-28T06:07:46;14.63;;;7.68;;
57822;SDS011;43650;48.064;20.624;2023-02-28T06:08:47;17.57;;;8.80;;
57822;SDS011;43650;48.064;20.624;2023-02-28T06:09:48;14.87;;;6.75;;
57822;SDS011;43650;48.064;20.624;2023-02-28T06:10:48;24.23;;;8.33;;
57822;SDS011;43650;48.064;20.624;2023-02-28T06:11:49;23.27;;;8.50;;
57822;SDS011;43650;48.064;20.624;2023-02-28T06:12:49;8.20;;;3.93;;
57822;SDS011;43650;48.064;20.624;2023-02-28T06:13:49;10.07;;;4.13;;
57822;SDS011;43650;48.064;20.624;2023-02-28T06:14:53;29.92;;;12.65;;
57822;SDS011;43650;48.064;20.624;2023-02-28T06:15:54;20.10;;;8.07;;
57822;SDS011;43650;48.064;20.624;2023-02-28T06:16:54;32.50;;;10.50;;
57822;SDS011;43650;48.064;20.624;2023-02-28T06:17:55;26.33;;;9.50;;
57822;SDS011;43650;48.064;20.624;2023-02-28T06:18:59;26.55;;;7.65;;
57822;SDS011;43650;48.064;20.624;2023-02-28T06:20:00;13.85;;;6.18;;
57822;SDS011;43650;48.064;20.624;2023-02-28T06:21:01;19.63;;;8.63;;
57822;SDS011;43650;48.064;20.624;2023-02-28T06:22:01;18.50;;;7.70;;
57822;SDS011;43650;48.064;20.624;2023-02-28T06:23:02;20.63;;;8.57;;
57822;SDS011;43650;48.064;20.624;2023-02-28T06:24:02;21.23;;;9.97;;
57822;SDS011;43650;48.064;20.624;2023-02-28T06:25:04;21.70;;;11.45;;
57822;SDS011;43650;48.064;20.624;2023-02-28T06:26:05;11.77;;;4.72;;
57822;SDS011;43650;48.064;20.624;2023-02-28T06:27:06;16.20;;;5.95;;
57822;SDS011;43650;48.064;20.624;2023-02-28T06:28:06;7.60;;;5.00;;
57822;SDS011;43650;48.064;20.624;2023-02-28T06:29:06;15.83;;;5.37;;
57822;SDS011;43650;48.064;20.624;2023-02-28T06:30:07;5.67;;;3.63;;
57822;SDS011;43650;48.064;20.624;2023-02-28T06:31:09;8.13;;;4.07;;
57822;SDS011;43650;48.064;20.624;2023-02-28T06:32:10;7.97;;;3.60;;
57822;SDS011;43650;48.064;20.624;2023-02-28T06:33:11;12.23;;;6.73;;
57822;SDS011;43650;48.064;20.624;2023-02-28T06:34:11;14.47;;;7.77;;
57822;SDS011;43650;48.064;20.624;2023-02-28T06:35:12;16.48;;;11.35;;
57822;SDS011;43650;48.064;20.624;2023-02-28T06:36:14;17.23;;;7.90;;
57822;SDS011;43650;48.064;20.624;2023-02-28T06:37:16;14.95;;;9.65;;
57822;SDS011;43650;48.064;20.624;2023-02-28T06:39:18;17.67;;;7.82;;
57822;SDS011;43650;48.064;20.624;2023-02-28T06:40:19;12.43;;;7.22;;
57822;SDS011;43650;48.064;20.624;2023-02-28T06:41:20;32.13;;;15.30;;
57822;SDS011;43650;48.064;20.624;2023-02-28T06:42:22;16.33;;;8.38;;
57822;SDS011;43650;48.064;20.624;2023-02-28T06:43:29;12.35;;;7.10;;
57822;SDS011;43650;48.064;20.624;2023-02-28T06:44:30;7.87;;;4.32;;
57822;SDS011;43650;48.064;20.624;2023-02-28T06:45:35;14.70;;;7.15;;
57822;SDS011;43650;48.064;20.624;2023-02-28T06:46:35;20.25;;;9.73;;
57822;SDS011;43650;48.064;20.624;2023-02-28T06:47:36;19.83;;;9.63;;
57822;SDS011;43650;48.064;20.624;2023-02-28T06:48:38;15.13;;;6.75;;
57822;SDS011;43650;48.064;20.624;2023-02-28T06:49:38;6.63;;;4.27;;
57822;SDS011;43650;48.064;20.624;2023-02-28T06:50:39;10.43;;;5.00;;
57822;SDS011;43650;48.064;20.624;2023-02-28T06:51:40;15.20;;;8.77;;